sensor_id;sensor_type;location;lat;lon;timestamp;pressure;altitude;pressure_sealevel;temperature;humidity
4858;BME280;58975;51.978;8.472;2023-06-22T00:02:47;100647.94;;;17.27;100.00
4858;BME280;58975;51.978;8.472;2023-06-22T00:07:44;100644.91;;;17.30;100.00
4858;BME280;58975;51.978;8.472;2023-06-22T00:12:40;100635.63;;;17.17;100.00
4858;BME280;58975;51.978;8.472;2023-06-22T00:17:37;100629.56;;;17.23;100.00
4858;BME280;58975;51.978;8.472;2023-06-22T00:22:33;100625.09;;;17.31;100.00
4858;BME280;58975;51.978;8.472;2023-06-22T00:27:35;100613.34;;;17.48;100.00
4858;BME280;58975;51.978;8.472;2023-06-22T00:32:32;100611.81;;;17.72;100.00
4858;BME280;58975;51.978;8.472;2023-06-22T00:37:28;100610.69;;;17.99;100.00
4858;BME280;58975;51.978;8.472;2023-06-22T00:42:25;100610.22;;;18.11;100.00
4858;BME280;58975;51.978;8.472;2023-06-22T00:47:22;100593.69;;;18.22;100.00
4858;BME280;58975;51.978;8.472;2023-06-22T00:52:21;100585.94;;;18.19;100.00
4858;BME280;58975;51.978;8.472;2023-06-22T00:57:20;100596.41;;;18.38;100.00
4858;BME280;58975;51.978;8.472;2023-06-22T01:02:16;100587.97;;;18.50;100.00
4858;BME280;58975;51.978;8.472;2023-06-22T01:07:35;100586.28;;;18.65;100.00
4858;BME280;58975;51.978;8.472;2023-06-22T01:12:34;100582.22;;;18.77;100.00
4858;BME280;58975;51.978;8.472;2023-06-22T01:17:35;100585.22;;;18.82;100.00
4858;BME280;58975;51.978;8.472;2023-06-22T01:22:48;100587.94;;;18.82;100.00
4858;BME280;58975;51.978;8.472;2023-06-22T01:28:05;100593.03;;;18.69;100.00
4858;BME280;58975;51.978;8.472;2023-06-22T01:33:12;100590.00;;;18.64;100.00
4858;BME280;58975;51.978;8.472;2023-06-22T01:38:10;100588.84;;;18.58;100.00
4858;BME280;58975;51.978;8.472;2023-06-22T01:43:07;100587.81;;;18.59;100.00
4858;BME280;58975;51.978;8.472;2023-06-22T01:48:04;100581.25;;;18.54;100.00
4858;BME280;58975;51.978;8.472;2023-06-22T01:53:00;100584.78;;;18.54;100.00
4858;BME280;58975;51.978;8.472;2023-06-22T01:57:57;100584.94;;;18.53;100.00
4858;BME280;58975;51.978;8.472;2023-06-22T02:02:58;100587.13;;;18.49;100.00
4858;BME280;58975;51.978;8.472;2023-06-22T02:13:24;100596.06;;;18.41;100.00
4858;BME280;58975;51.978;8.472;2023-06-22T02:18:21;100602.59;;;18.39;100.00
4858;BME280;58975;51.978;8.472;2023-06-22T02:23:19;100599.59;;;18.34;100.00
4858;BME280;58975;51.978;8.472;2023-06-22T02:28:15;100601.59;;;18.32;100.00
4858;BME280;58975;51.978;8.472;2023-06-22T02:33:11;100597.06;;;18.32;100.00
4858;BME280;58975;51.978;8.472;2023-06-22T02:38:08;100610.03;;;18.37;100.00
4858;BME280;58975;51.978;8.472;2023-06-22T02:43:05;100594.72;;;18.37;100.00
4858;BME280;58975;51.978;8.472;2023-06-22T02:48:01;100596.22;;;18.40;100.00
4858;BME280;58975;51.978;8.472;2023-06-22T02:52:58;100595.56;;;18.38;100.00
4858;BME280;58975;51.978;8.472;2023-06-22T02:57:54;100597.06;;;18.32;100.00
4858;BME280;58975;51.978;8.472;2023-06-22T03:02:51;100602.44;;;18.32;100.00
4858;BME280;58975;51.978;8.472;2023-06-22T03:07:47;100599.09;;;18.30;100.00
4858;BME280;58975;51.978;8.472;2023-06-22T03:12:44;100589.81;;;18.25;100.00
4858;BME280;58975;51.978;8.472;2023-06-22T03:17:40;100597.91;;;18.17;100.00
4858;BME280;58975;51.978;8.472;2023-06-22T03:22:38;100593.69;;;18.14;100.00
4858;BME280;58975;51.978;8.472;2023-06-22T03:27:44;100592.69;;;18.07;100.00
4858;BME280;58975;51.978;8.472;2023-06-22T03:32:41;100585.94;;;18.03;100.00
4858;BME280;58975;51.978;8.472;2023-06-22T03:37:39;100594.00;;;17.95;100.00
4858;BME280;58975;51.978;8.472;2023-06-22T03:42:35;100586.59;;;17.97;100.00
4858;BME280;58975;51.978;8.472;2023-06-22T03:47:32;100600.41;;;18.02;100.00
4858;BME280;58975;51.978;8.472;2023-06-22T03:52:29;100585.94;;;18.03;100.00
4858;BME280;58975;51.978;8.472;2023-06-22T03:57:26;100585.09;;;18.03;100.00
4858;BME280;58975;51.978;8.472;2023-06-22T04:02:22;100591.00;;;18.06;100.00
4858;BME280;58975;51.978;8.472;2023-06-22T04:07:19;100582.72;;;18.08;100.00
4858;BME280;58975;51.978;8.472;2023-06-22T04:12:15;100584.25;;;18.10;100.00
4858;BME280;58975;51.978;8.472;2023-06-22T04:17:12;100589.31;;;18.13;100.00
4858;BME280;58975;51.978;8.472;2023-06-22T04:22:10;100588.81;;;18.18;100.00
4858;BME280;58975;51.978;8.472;2023-06-22T04:27:06;100587.28;;;18.31;100.00
4858;BME280;58975;51.978;8.472;2023-06-22T04:32:03;100586.78;;;18.44;100.00
4858;BME280;58975;51.978;8.472;2023-06-22T04:37:01;100591.66;;;18.49;100.00
4858;BME280;58975;51.978;8.472;2023-06-22T04:41:58;100577.50;;;18.63;100.00
4858;BME280;58975;51.978;8.472;2023-06-22T04:46:58;100576.16;;;18.59;100.00
4858;BME280;58975;51.978;8.472;2023-06-22T04:52:00;100581.56;;;18.59;100.00
4858;BME280;58975;51.978;8.472;2023-06-22T04:56:57;100580.91;;;18.57;100.00
4858;BME280;58975;51.978;8.472;2023-06-22T05:01:58;100582.25;;;18.61;100.00
4858;BME280;58975;51.978;8.472;2023-06-22T05:06:54;100584.94;;;18.69;100.00
4858;BME280;58975;51.978;8.472;2023-06-22T05:11:51;100577.84;;;18.76;100.00
4858;BME280;58975;51.978;8.472;2023-06-22T05:16:48;100573.44;;;18.83;100.00
4858;BME280;58975;51.978;8.472;2023-06-22T05:21:45;100570.03;;;18.97;100.00
4858;BME280;58975;51.978;8.472;2023-06-22T05:26:42;100562.59;;;18.99;100.00
4858;BME280;58975;51.978;8.472;2023-06-22T05:31:38;100558.53;;;19.03;100.00
4858;BME280;58975;51.978;8.472;2023-06-22T05:36:36;100572.84;;;19.12;100.00
4858;BME280;58975;51.978;8.472;2023-06-22T05:41:32;100570.31;;;19.10;100.00
4858;BME280;58975;51.978;8.472;2023-06-22T05:46:29;100568.41;;;19.27;100.00
4858;BME280;58975;51.978;8.472;2023-06-22T05:51:25;100573.25;;;19.48;100.00
4858;BME280;58975;51.978;8.472;2023-06-22T05:56:22;100570.47;;;19.87;100.00
4858;BME280;58975;51.978;8.472;2023-06-22T06:01:18;100575.50;;;20.12;100.00
4858;BME280;58975;51.978;8.472;2023-06-22T06:06:16;100573.69;;;20.27;100.00
4858;BME280;58975;51.978;8.472;2023-06-22T06:11:14;100581.00;;;20.50;100.00
4858;BME280;58975;51.978;8.472;2023-06-22T06:16:10;100579.84;;;20.96;100.00
4858;BME280;58975;51.978;8.472;2023-06-22T06:21:07;100577.84;;;21.49;100.00
4858;BME280;58975;51.978;8.472;2023-06-22T06:26:04;100585.41;;;22.04;100.00
4858;BME280;58975;51.978;8.472;2023-06-22T06:31:03;100581.78;;;22.39;100.00
4858;BME280;58975;51.978;8.472;2023-06-22T06:36:03;100582.75;;;22.53;100.00
4858;BME280;58975;51.978;8.472;2023-06-22T06:41:00;100577.34;;;22.81;100.00
4858;BME280;58975;51.978;8.472;2023-06-22T06:45:56;100563.50;;;23.03;100.00
4858;BME280;58975;51.978;8.472;2023-06-22T06:50:53;100578.38;;;23.14;100.00
4858;BME280;58975;51.978;8.472;2023-06-22T06:55:49;100570.66;;;23.18;100.00
4858;BME280;58975;51.978;8.472;2023-06-22T07:00:46;100584.50;;;23.23;100.00
4858;BME280;58975;51.978;8.472;2023-06-22T07:05:42;100574.25;;;22.90;100.00
4858;BME280;58975;51.978;8.472;2023-06-22T07:10:39;100579.06;;;22.67;100.00
4858;BME280;58975;51.978;8.472;2023-06-22T07:15:36;100581.00;;;22.45;100.00
4858;BME280;58975;51.978;8.472;2023-06-22T07:20:32;100569.88;;;22.61;100.00
4858;BME280;58975;51.978;8.472;2023-06-22T07:25:29;100577.38;;;22.87;100.00
4858;BME280;58975;51.978;8.472;2023-06-22T07:30:25;100579.22;;;23.15;100.00
4858;BME280;58975;51.978;8.472;2023-06-22T07:35:24;100562.34;;;23.26;100.00
4858;BME280;58975;51.978;8.472;2023-06-22T07:40:21;100566.44;;;23.43;100.00
4858;BME280;58975;51.978;8.472;2023-06-22T07:45:18;100557.75;;;23.67;100.00
4858;BME280;58975;51.978;8.472;2023-06-22T07:50:14;100563.44;;;23.85;100.00
4858;BME280;58975;51.978;8.472;2023-06-22T07:55:10;100552.75;;;23.84;100.00
4858;BME280;58975;51.978;8.472;2023-06-22T08:00:07;100563.63;;;23.84;100.00
4858;BME280;58975;51.978;8.472;2023-06-22T08:05:09;100556.78;;;23.94;100.00
4858;BME280;58975;51.978;8.472;2023-06-22T08:10:18;100552.41;;;24.07;100.00
4858;BME280;58975;51.978;8.472;2023-06-22T08:15:15;100551.81;;;24.31;100.00
4858;BME280;58975;51.978;8.472;2023-06-22T08:20:11;100550.97;;;24.63;100.00
4858;BME280;58975;51.978;8.472;2023-06-22T08:25:11;100545.03;;;25.06;100.00
4858;BME280;58975;51.978;8.472;2023-06-22T08:30:09;100534.00;;;25.45;100.00
4858;BME280;58975;51.978;8.472;2023-06-22T08:35:07;100513.63;;;25.54;100.00
4858;BME280;58975;51.978;8.472;2023-06-22T08:40:08;100519.81;;;26.06;100.00
4858;BME280;58975;51.978;8.472;2023-06-22T08:45:06;100520.00;;;26.85;100.00
4858;BME280;58975;51.978;8.472;2023-06-22T08:50:03;100527.38;;;26.35;100.00
4858;BME280;58975;51.978;8.472;2023-06-22T08:55:00;100511.75;;;24.97;100.00
4858;BME280;58975;51.978;8.472;2023-06-22T08:59:56;100501.50;;;24.79;100.00
4858;BME280;58975;51.978;8.472;2023-06-22T09:04:56;100482.28;;;25.25;100.00
4858;BME280;58975;51.978;8.472;2023-06-22T09:09:55;100489.88;;;25.61;100.00
4858;BME280;58975;51.978;8.472;2023-06-22T09:14:53;100484.31;;;24.79;100.00
4858;BME280;58975;51.978;8.472;2023-06-22T09:19:49;100466.72;;;24.81;100.00
4858;BME280;58975;51.978;8.472;2023-06-22T09:24:46;100480.41;;;25.26;100.00
4858;BME280;58975;51.978;8.472;2023-06-22T09:29:42;100483.19;;;25.57;100.00
4858;BME280;58975;51.978;8.472;2023-06-22T09:34:39;100481.81;;;25.79;100.00
4858;BME280;58975;51.978;8.472;2023-06-22T09:39:35;100482.63;;;25.80;100.00
4858;BME280;58975;51.978;8.472;2023-06-22T09:44:33;100478.75;;;26.50;100.00
4858;BME280;58975;51.978;8.472;2023-06-22T09:49:29;100469.31;;;27.55;100.00
4858;BME280;58975;51.978;8.472;2023-06-22T09:54:43;100454.44;;;28.04;100.00
4858;BME280;58975;51.978;8.472;2023-06-22T09:59:41;100448.41;;;27.72;100.00
4858;BME280;58975;51.978;8.472;2023-06-22T10:04:37;100450.69;;;27.76;100.00
4858;BME280;58975;51.978;8.472;2023-06-22T10:09:34;100455.59;;;27.97;100.00
4858;BME280;58975;51.978;8.472;2023-06-22T10:14:30;100439.91;;;27.51;100.00
4858;BME280;58975;51.978;8.472;2023-06-22T10:19:27;100457.16;;;27.33;100.00
4858;BME280;58975;51.978;8.472;2023-06-22T10:24:24;100446.94;;;27.28;100.00
4858;BME280;58975;51.978;8.472;2023-06-22T10:29:20;100447.69;;;27.65;100.00
4858;BME280;58975;51.978;8.472;2023-06-22T10:34:17;100441.69;;;27.57;100.00
4858;BME280;58975;51.978;8.472;2023-06-22T10:39:13;100439.31;;;28.02;100.00
4858;BME280;58975;51.978;8.472;2023-06-22T10:44:10;100431.13;;;28.60;100.00
4858;BME280;58975;51.978;8.472;2023-06-22T10:49:07;100411.69;;;28.03;100.00
4858;BME280;58975;51.978;8.472;2023-06-22T10:54:03;100399.41;;;27.41;100.00
4858;BME280;58975;51.978;8.472;2023-06-22T10:59:00;100397.53;;;27.12;100.00
4858;BME280;58975;51.978;8.472;2023-06-22T11:03:58;100383.06;;;27.23;100.00
4858;BME280;58975;51.978;8.472;2023-06-22T11:08:55;100381.88;;;27.19;100.00
4858;BME280;58975;51.978;8.472;2023-06-22T11:14:01;100383.50;;;27.91;100.00
4858;BME280;58975;51.978;8.472;2023-06-22T11:18:58;100367.69;;;28.28;100.00
4858;BME280;58975;51.978;8.472;2023-06-22T11:23:54;100361.63;;;28.14;100.00
4858;BME280;58975;51.978;8.472;2023-06-22T11:28:51;100349.06;;;27.84;100.00
4858;BME280;58975;51.978;8.472;2023-06-22T11:33:47;100353.13;;;27.69;100.00
4858;BME280;58975;51.978;8.472;2023-06-22T11:38:44;100347.41;;;27.48;100.00
4858;BME280;58975;51.978;8.472;2023-06-22T11:43:40;100331.97;;;27.23;100.00
4858;BME280;58975;51.978;8.472;2023-06-22T11:48:37;100321.38;;;27.27;100.00
4858;BME280;58975;51.978;8.472;2023-06-22T11:53:34;100317.53;;;27.05;100.00
4858;BME280;58975;51.978;8.472;2023-06-22T11:58:31;100302.81;;;27.17;100.00
4858;BME280;58975;51.978;8.472;2023-06-22T12:03:27;100294.34;;;27.60;100.00
4858;BME280;58975;51.978;8.472;2023-06-22T12:08:24;100306.59;;;27.05;100.00
4858;BME280;58975;51.978;8.472;2023-06-22T12:13:21;100304.34;;;27.13;100.00
4858;BME280;58975;51.978;8.472;2023-06-22T12:18:18;100321.38;;;26.67;100.00
4858;BME280;58975;51.978;8.472;2023-06-22T12:23:17;100346.94;;;25.94;100.00
4858;BME280;58975;51.978;8.472;2023-06-22T12:28:13;100340.84;;;25.98;100.00
4858;BME280;58975;51.978;8.472;2023-06-22T12:33:10;100346.41;;;25.60;100.00
4858;BME280;58975;51.978;8.472;2023-06-22T12:38:07;100357.75;;;25.26;100.00
4858;BME280;58975;51.978;8.472;2023-06-22T12:43:04;100352.75;;;24.78;100.00
4858;BME280;58975;51.978;8.472;2023-06-22T12:48:01;100349.06;;;24.60;100.00
4858;BME280;58975;51.978;8.472;2023-06-22T12:52:57;100338.44;;;24.45;100.00
4858;BME280;58975;51.978;8.472;2023-06-22T12:57:54;100311.09;;;24.00;100.00
4858;BME280;58975;51.978;8.472;2023-06-22T13:02:50;100302.38;;;23.52;100.00
4858;BME280;58975;51.978;8.472;2023-06-22T13:07:49;100279.78;;;23.13;100.00
4858;BME280;58975;51.978;8.472;2023-06-22T13:12:46;100295.81;;;22.81;100.00
4858;BME280;58975;51.978;8.472;2023-06-22T13:17:42;100304.84;;;22.47;100.00
4858;BME280;58975;51.978;8.472;2023-06-22T13:22:39;100308.72;;;22.32;100.00
4858;BME280;58975;51.978;8.472;2023-06-22T13:27:41;100313.03;;;22.20;100.00
4858;BME280;58975;51.978;8.472;2023-06-22T13:32:38;100326.19;;;22.16;100.00
4858;BME280;58975;51.978;8.472;2023-06-22T13:37:38;100325.97;;;22.11;100.00
4858;BME280;58975;51.978;8.472;2023-06-22T13:42:34;100315.97;;;21.90;100.00
4858;BME280;58975;51.978;8.472;2023-06-22T13:47:31;100340.81;;;21.66;100.00
4858;BME280;58975;51.978;8.472;2023-06-22T13:52:28;100378.50;;;21.61;100.00
4858;BME280;58975;51.978;8.472;2023-06-22T13:57:24;100356.16;;;21.31;100.00
4858;BME280;58975;51.978;8.472;2023-06-22T14:02:20;100331.94;;;21.08;100.00
4858;BME280;58975;51.978;8.472;2023-06-22T14:07:17;100273.22;;;21.09;100.00
4858;BME280;58975;51.978;8.472;2023-06-22T14:12:15;100243.13;;;20.97;100.00
4858;BME280;58975;51.978;8.472;2023-06-22T14:17:14;100251.72;;;20.86;100.00
4858;BME280;58975;51.978;8.472;2023-06-22T14:22:10;100233.13;;;20.76;100.00
4858;BME280;58975;51.978;8.472;2023-06-22T14:27:06;100222.25;;;20.70;100.00
4858;BME280;58975;51.978;8.472;2023-06-22T14:32:05;100208.88;;;20.68;100.00
4858;BME280;58975;51.978;8.472;2023-06-22T14:37:02;100162.84;;;20.62;100.00
4858;BME280;58975;51.978;8.472;2023-06-22T14:41:59;100161.91;;;20.55;100.00
4858;BME280;58975;51.978;8.472;2023-06-22T14:46:57;100156.63;;;20.68;100.00
4858;BME280;58975;51.978;8.472;2023-06-22T14:51:53;100136.97;;;20.81;100.00
4858;BME280;58975;51.978;8.472;2023-06-22T14:56:50;100145.19;;;20.94;100.00
4858;BME280;58975;51.978;8.472;2023-06-22T15:01:47;100144.28;;;21.36;100.00
4858;BME280;58975;51.978;8.472;2023-06-22T15:06:44;100121.53;;;21.71;100.00
4858;BME280;58975;51.978;8.472;2023-06-22T15:11:41;100113.09;;;21.53;100.00
4858;BME280;58975;51.978;8.472;2023-06-22T15:16:37;100127.72;;;21.58;100.00
4858;BME280;58975;51.978;8.472;2023-06-22T15:21:34;100088.44;;;21.35;100.00
4858;BME280;58975;51.978;8.472;2023-06-22T15:26:31;100084.81;;;21.62;100.00
4858;BME280;58975;51.978;8.472;2023-06-22T15:31:27;100076.22;;;21.99;100.00
4858;BME280;58975;51.978;8.472;2023-06-22T15:36:24;100056.63;;;22.63;100.00
4858;BME280;58975;51.978;8.472;2023-06-22T15:41:20;100060.63;;;22.41;100.00
4858;BME280;58975;51.978;8.472;2023-06-22T15:46:17;100034.94;;;22.43;100.00
4858;BME280;58975;51.978;8.472;2023-06-22T15:51:14;99999.22;;;22.66;100.00
4858;BME280;58975;51.978;8.472;2023-06-22T15:56:10;99982.16;;;22.06;100.00
4858;BME280;58975;51.978;8.472;2023-06-22T16:01:07;99961.28;;;22.13;100.00
4858;BME280;58975;51.978;8.472;2023-06-22T16:06:05;99936.63;;;21.89;100.00
4858;BME280;58975;51.978;8.472;2023-06-22T16:11:01;99922.25;;;21.82;100.00
4858;BME280;58975;51.978;8.472;2023-06-22T16:15:58;99928.66;;;21.61;100.00
4858;BME280;58975;51.978;8.472;2023-06-22T16:20:54;99929.28;;;21.50;100.00
4858;BME280;58975;51.978;8.472;2023-06-22T16:25:51;99943.78;;;21.22;100.00
4858;BME280;58975;51.978;8.472;2023-06-22T16:30:47;99936.16;;;20.98;100.00
4858;BME280;58975;51.978;8.472;2023-06-22T16:35:46;99929.03;;;20.84;100.00
4858;BME280;58975;51.978;8.472;2023-06-22T16:40:42;99929.53;;;20.66;100.00
4858;BME280;58975;51.978;8.472;2023-06-22T16:45:39;99927.00;;;20.58;100.00
4858;BME280;58975;51.978;8.472;2023-06-22T16:50:35;99968.56;;;20.51;100.00
4858;BME280;58975;51.978;8.472;2023-06-22T16:55:33;100023.91;;;20.48;100.00
4858;BME280;58975;51.978;8.472;2023-06-22T17:00:31;100086.91;;;20.42;100.00
4858;BME280;58975;51.978;8.472;2023-06-22T17:05:28;100163.00;;;20.39;100.00
4858;BME280;58975;51.978;8.472;2023-06-22T17:10:26;100210.03;;;20.38;100.00
4858;BME280;58975;51.978;8.472;2023-06-22T17:15:24;100143.72;;;20.27;100.00
4858;BME280;58975;51.978;8.472;2023-06-22T17:20:21;100186.16;;;19.91;100.00
4858;BME280;58975;51.978;8.472;2023-06-22T17:25:18;100206.75;;;19.77;100.00
4858;BME280;58975;51.978;8.472;2023-06-22T17:30:16;100226.59;;;19.70;100.00
4858;BME280;58975;51.978;8.472;2023-06-22T17:35:14;100244.94;;;19.74;100.00
4858;BME280;58975;51.978;8.472;2023-06-22T17:40:14;100210.00;;;19.73;100.00
4858;BME280;58975;51.978;8.472;2023-06-22T17:45:19;100160.44;;;19.66;100.00
4858;BME280;58975;51.978;8.472;2023-06-22T17:50:17;100164.44;;;19.70;100.00
4858;BME280;58975;51.978;8.472;2023-06-22T17:55:14;100163.91;;;19.60;100.00
4858;BME280;58975;51.978;8.472;2023-06-22T18:00:11;100156.16;;;19.57;100.00
4858;BME280;58975;51.978;8.472;2023-06-22T18:05:09;100152.81;;;19.55;100.00
4858;BME280;58975;51.978;8.472;2023-06-22T18:10:06;100151.97;;;19.54;100.00
4858;BME280;58975;51.978;8.472;2023-06-22T18:15:03;100143.69;;;19.56;100.00
4858;BME280;58975;51.978;8.472;2023-06-22T18:20:01;100145.34;;;19.57;100.00
4858;BME280;58975;51.978;8.472;2023-06-22T18:24:58;100135.59;;;19.56;100.00
4858;BME280;58975;51.978;8.472;2023-06-22T18:29:55;100128.13;;;19.58;100.00
4858;BME280;58975;51.978;8.472;2023-06-22T18:34:52;100139.59;;;19.60;100.00
4858;BME280;58975;51.978;8.472;2023-06-22T18:39:53;100161.84;;;19.62;100.00
4858;BME280;58975;51.978;8.472;2023-06-22T18:44:52;100169.56;;;19.65;100.00
4858;BME280;58975;51.978;8.472;2023-06-22T18:49:49;100174.50;;;19.61;100.00
4858;BME280;58975;51.978;8.472;2023-06-22T18:54:49;100176.19;;;19.62;100.00
4858;BME280;58975;51.978;8.472;2023-06-22T18:59:58;100157.13;;;19.64;100.00
4858;BME280;58975;51.978;8.472;2023-06-22T19:15:35;100138.84;;;19.66;100.00
4858;BME280;58975;51.978;8.472;2023-06-22T19:20:32;100123.94;;;19.70;100.00
4858;BME280;58975;51.978;8.472;2023-06-22T19:25:30;100103.91;;;19.64;100.00
4858;BME280;58975;51.978;8.472;2023-06-22T19:30:30;100094.69;;;19.59;100.00
4858;BME280;58975;51.978;8.472;2023-06-22T19:35:28;100079.22;;;19.53;100.00
4858;BME280;58975;51.978;8.472;2023-06-22T19:40:25;100073.75;;;19.46;100.00
4858;BME280;58975;51.978;8.472;2023-06-22T19:45:22;100063.34;;;19.43;100.00
4858;BME280;58975;51.978;8.472;2023-06-22T19:50:20;100047.03;;;19.36;100.00
4858;BME280;58975;51.978;8.472;2023-06-22T19:55:21;100061.94;;;19.32;100.00
4858;BME280;58975;51.978;8.472;2023-06-22T20:00:21;100074.75;;;19.30;100.00
4858;BME280;58975;51.978;8.472;2023-06-22T20:05:19;100065.25;;;19.34;100.00
4858;BME280;58975;51.978;8.472;2023-06-22T20:10:21;100063.97;;;19.30;100.00
4858;BME280;58975;51.978;8.472;2023-06-22T20:15:25;100075.78;;;19.29;100.00
4858;BME280;58975;51.978;8.472;2023-06-22T20:20:24;100076.84;;;19.28;100.00
4858;BME280;58975;51.978;8.472;2023-06-22T20:25:21;100077.38;;;19.24;100.00
4858;BME280;58975;51.978;8.472;2023-06-22T20:30:20;100081.28;;;19.21;100.00
4858;BME280;58975;51.978;8.472;2023-06-22T20:35:18;100070.84;;;19.18;100.00
4858;BME280;58975;51.978;8.472;2023-06-22T20:40:17;100059.44;;;19.16;100.00
4858;BME280;58975;51.978;8.472;2023-06-22T20:45:14;100083.34;;;19.19;100.00
4858;BME280;58975;51.978;8.472;2023-06-22T20:50:10;100074.13;;;19.14;100.00
4858;BME280;58975;51.978;8.472;2023-06-22T20:55:07;100063.53;;;19.12;100.00
4858;BME280;58975;51.978;8.472;2023-06-22T21:00:04;100041.25;;;19.10;100.00
4858;BME280;58975;51.978;8.472;2023-06-22T21:05:02;100049.81;;;18.99;100.00
4858;BME280;58975;51.978;8.472;2023-06-22T21:09:59;100059.78;;;18.99;100.00
4858;BME280;58975;51.978;8.472;2023-06-22T21:14:55;100058.69;;;18.93;100.00
4858;BME280;58975;51.978;8.472;2023-06-22T21:19:52;100060.25;;;18.87;100.00
4858;BME280;58975;51.978;8.472;2023-06-22T21:25:12;100062.84;;;18.81;100.00
4858;BME280;58975;51.978;8.472;2023-06-22T21:30:11;100042.66;;;18.77;100.00
4858;BME280;58975;51.978;8.472;2023-06-22T21:35:08;100040.34;;;18.74;100.00
4858;BME280;58975;51.978;8.472;2023-06-22T21:40:08;100027.75;;;18.66;100.00
4858;BME280;58975;51.978;8.472;2023-06-22T21:45:05;100004.69;;;18.64;100.00
4858;BME280;58975;51.978;8.472;2023-06-22T21:50:02;100010.47;;;18.61;100.00
4858;BME280;58975;51.978;8.472;2023-06-22T21:54:58;100027.66;;;18.60;100.00
4858;BME280;58975;51.978;8.472;2023-06-22T21:59:56;100034.28;;;18.57;100.00
4858;BME280;58975;51.978;8.472;2023-06-22T22:04:52;100023.00;;;18.54;100.00
4858;BME280;58975;51.978;8.472;2023-06-22T22:09:49;100031.94;;;18.54;100.00
4858;BME280;58975;51.978;8.472;2023-06-22T22:14:45;100052.47;;;18.55;100.00
4858;BME280;58975;51.978;8.472;2023-06-22T22:19:42;100058.25;;;18.52;100.00
4858;BME280;58975;51.978;8.472;2023-06-22T22:24:38;100063.50;;;18.46;100.00
4858;BME280;58975;51.978;8.472;2023-06-22T22:29:35;100069.16;;;18.51;100.00
4858;BME280;58975;51.978;8.472;2023-06-22T22:34:31;100058.75;;;18.48;100.00
4858;BME280;58975;51.978;8.472;2023-06-22T22:39:35;100055.28;;;18.39;100.00
4858;BME280;58975;51.978;8.472;2023-06-22T22:44:33;100060.41;;;18.34;100.00
4858;BME280;58975;51.978;8.472;2023-06-22T22:49:31;100061.94;;;18.28;100.00
4858;BME280;58975;51.978;8.472;2023-06-22T22:54:27;100069.41;;;18.26;100.00
4858;BME280;58975;51.978;8.472;2023-06-22T22:59:23;100057.31;;;18.22;100.00
4858;BME280;58975;51.978;8.472;2023-06-22T23:04:20;100076.03;;;18.16;100.00
4858;BME280;58975;51.978;8.472;2023-06-22T23:09:16;100077.22;;;18.13;100.00
4858;BME280;58975;51.978;8.472;2023-06-22T23:14:13;100100.16;;;18.09;100.00
4858;BME280;58975;51.978;8.472;2023-06-22T23:19:11;100118.38;;;18.07;100.00
4858;BME280;58975;51.978;8.472;2023-06-22T23:24:08;100137.41;;;18.06;100.00
4858;BME280;58975;51.978;8.472;2023-06-22T23:29:04;100165.84;;;18.08;100.00
4858;BME280;58975;51.978;8.472;2023-06-22T23:34:01;100178.47;;;18.08;100.00
4858;BME280;58975;51.978;8.472;2023-06-22T23:39:00;100175.78;;;18.08;100.00
4858;BME280;58975;51.978;8.472;2023-06-22T23:43:56;100189.63;;;18.05;100.00
4858;BME280;58975;51.978;8.472;2023-06-22T23:48:53;100194.84;;;18.06;100.00
4858;BME280;58975;51.978;8.472;2023-06-22T23:53:49;100191.19;;;17.99;100.00
4858;BME280;58975;51.978;8.472;2023-06-22T23:58:46;100195.06;;;17.96;100.00
